createdAt,value
2022-11-22T00:00:56.186Z,100.00
2022-11-22T00:03:24.049Z,100.00
2022-11-22T00:05:52.235Z,100.00
2022-11-22T00:08:20.039Z,100.00
2022-11-22T00:10:50.024Z,100.00
2022-11-22T00:13:19.519Z,100.00
2022-11-22T00:15:58.137Z,100.00
2022-11-22T00:18:25.751Z,100.00
2022-11-22T00:20:53.424Z,100.00
2022-11-22T00:23:23.567Z,100.00
2022-11-22T00:25:51.488Z,100.00
2022-11-22T00:28:19.150Z,100.00
2022-11-22T00:30:46.795Z,100.00
2022-11-22T00:33:14.581Z,100.00
2022-11-22T00:35:42.349Z,100.00
2022-11-22T00:38:09.905Z,100.00
2022-11-22T00:40:37.459Z,100.00
2022-11-22T00:43:05.250Z,100.00
2022-11-22T00:45:33.006Z,100.00
2022-11-22T00:48:00.748Z,100.00
2022-11-22T00:50:28.620Z,100.00
2022-11-22T00:53:22.452Z,100.00
2022-11-22T00:55:51.311Z,100.00
2022-11-22T00:58:18.936Z,100.00
2022-11-22T01:00:46.620Z,100.00
2022-11-22T01:03:20.387Z,100.00
2022-11-22T01:05:48.213Z,100.00
2022-11-22T01:08:15.819Z,100.00
2022-11-22T01:10:43.663Z,100.00
2022-11-22T01:13:12.981Z,100.00
2022-11-22T01:15:40.751Z,100.00
2022-11-22T01:18:11.803Z,100.00
2022-11-22T01:20:41.190Z,100.00
2022-11-22T01:23:08.744Z,100.00
2022-11-22T01:25:36.624Z,100.00
2022-11-22T01:28:04.532Z,100.00
2022-11-22T01:30:32.227Z,100.00
2022-11-22T01:32:59.808Z,100.00
2022-11-22T01:35:27.419Z,100.00
2022-11-22T01:37:55.081Z,100.00
2022-11-22T01:40:22.770Z,100.00
2022-11-22T01:42:57.077Z,100.00
2022-11-22T01:45:30.877Z,100.00
2022-11-22T01:48:10.454Z,100.00
2022-11-22T01:50:41.608Z,100.00
2022-11-22T01:53:37.976Z,100.00
2022-11-22T01:56:10.298Z,100.00
2022-11-22T01:58:41.807Z,100.00
2022-11-22T02:01:09.586Z,100.00
2022-11-22T02:03:42.798Z,100.00
2022-11-22T02:06:11.254Z,100.00
2022-11-22T02:09:01.842Z,100.00
2022-11-22T02:11:33.999Z,100.00
2022-11-22T02:14:03.541Z,100.00
2022-11-22T02:16:31.255Z,100.00
2022-11-22T02:18:59.045Z,100.00
2022-11-22T02:21:28.261Z,100.00
2022-11-22T02:24:21.822Z,100.00
2022-11-22T02:26:49.428Z,100.00
2022-11-22T02:29:18.405Z,100.00
2022-11-22T02:31:47.575Z,100.00
2022-11-22T02:34:15.131Z,100.00
2022-11-22T02:36:49.290Z,100.00
2022-11-22T02:39:23.771Z,100.00
2022-11-22T02:41:52.464Z,100.00
2022-11-22T02:44:21.767Z,100.00
2022-11-22T02:46:52.034Z,100.00
2022-11-22T02:49:23.352Z,100.00
2022-11-22T02:51:52.628Z,100.00
2022-11-22T02:54:21.239Z,100.00
2022-11-22T02:56:49.282Z,100.00
2022-11-22T02:59:17.041Z,100.00
2022-11-22T03:01:47.247Z,100.00
2022-11-22T03:04:24.850Z,100.00
2022-11-22T03:06:56.392Z,100.00
2022-11-22T03:09:26.093Z,100.00
2022-11-22T03:11:54.862Z,100.00
2022-11-22T03:14:23.200Z,100.00
2022-11-22T03:16:51.758Z,100.00
2022-11-22T03:19:19.845Z,100.00
2022-11-22T03:21:47.837Z,100.00
2022-11-22T03:24:15.690Z,100.00
2022-11-22T03:26:49.018Z,100.00
2022-11-22T03:29:18.147Z,100.00
2022-11-22T03:31:45.784Z,100.00
2022-11-22T03:34:14.323Z,100.00
2022-11-22T03:36:42.022Z,100.00
2022-11-22T03:39:09.998Z,100.00
2022-11-22T03:41:37.704Z,100.00
2022-11-22T03:44:05.629Z,100.00
2022-11-22T03:46:33.356Z,100.00
2022-11-22T03:49:00.883Z,100.00
2022-11-22T03:51:28.773Z,100.00
2022-11-22T03:53:57.548Z,100.00
2022-11-22T03:56:25.169Z,100.00
2022-11-22T03:58:53.763Z,100.00
2022-11-22T04:01:21.420Z,100.00
2022-11-22T04:03:49.891Z,100.00
2022-11-22T04:06:17.487Z,100.00
2022-11-22T04:08:45.171Z,100.00
2022-11-22T04:11:12.832Z,100.00
2022-11-22T04:13:58.908Z,100.00
2022-11-22T04:16:26.435Z,100.00
2022-11-22T04:18:58.719Z,100.00
2022-11-22T04:21:35.318Z,100.00
2022-11-22T04:24:29.967Z,100.00
2022-11-22T04:26:58.256Z,100.00
2022-11-22T04:29:26.387Z,100.00
2022-11-22T04:32:13.080Z,100.00
2022-11-22T04:34:40.804Z,100.00
2022-11-22T04:37:08.430Z,100.00
2022-11-22T04:39:36.514Z,100.00
2022-11-22T04:42:23.992Z,100.00
2022-11-22T04:44:51.616Z,100.00
2022-11-22T04:47:38.528Z,100.00
2022-11-22T04:50:28.900Z,100.00
2022-11-22T04:53:00.925Z,100.00
2022-11-22T04:55:54.013Z,100.00
2022-11-22T04:58:22.473Z,100.00
2022-11-22T05:01:03.053Z,100.00
2022-11-22T05:03:30.747Z,100.00
2022-11-22T05:06:03.448Z,100.00
2022-11-22T05:08:31.865Z,100.00
2022-11-22T05:10:59.844Z,100.00
2022-11-22T05:13:34.839Z,100.00
2022-11-22T05:16:04.936Z,100.00
2022-11-22T05:18:32.945Z,100.00
2022-11-22T05:21:14.549Z,100.00
2022-11-22T05:23:57.235Z,100.00
2022-11-22T05:26:34.498Z,100.00
2022-11-22T05:29:10.545Z,100.00
2022-11-22T05:31:39.843Z,100.00
2022-11-22T05:34:07.690Z,100.00
2022-11-22T05:36:36.049Z,100.00
2022-11-22T05:39:04.570Z,100.00
2022-11-22T05:41:32.240Z,100.00
2022-11-22T05:43:59.939Z,100.00
2022-11-22T05:46:30.314Z,100.00
2022-11-22T05:48:59.125Z,100.00
2022-11-22T05:51:34.545Z,100.00
2022-11-22T05:54:03.390Z,100.00
2022-11-22T05:56:31.032Z,100.00
2022-11-22T05:58:58.866Z,100.00
2022-11-22T06:01:26.709Z,100.00
2022-11-22T06:03:55.001Z,100.00
2022-11-22T06:06:22.858Z,100.00
2022-11-22T06:08:51.490Z,100.00
2022-11-22T06:11:25.388Z,100.00
2022-11-22T06:13:59.807Z,100.00
2022-11-22T06:16:27.852Z,100.00
2022-11-22T06:19:21.002Z,100.00
2022-11-22T06:21:48.595Z,100.00
2022-11-22T06:24:16.279Z,100.00
2022-11-22T06:26:44.039Z,100.00
2022-11-22T06:29:11.741Z,100.00
2022-11-22T06:31:39.361Z,100.00
2022-11-22T06:34:08.968Z,100.00
2022-11-22T06:36:39.354Z,100.00
2022-11-22T06:39:07.053Z,100.00
2022-11-22T06:41:37.306Z,100.00
2022-11-22T06:44:09.659Z,100.00
2022-11-22T06:46:38.120Z,100.00
2022-11-22T06:49:05.738Z,100.00
2022-11-22T06:51:33.651Z,100.00
2022-11-22T06:54:01.448Z,100.00
2022-11-22T06:56:47.481Z,100.00
2022-11-22T06:59:15.087Z,100.00
2022-11-22T07:01:42.763Z,100.00
2022-11-22T07:04:10.740Z,100.00
2022-11-22T07:06:39.515Z,100.00
2022-11-22T07:09:10.107Z,100.00
2022-11-22T07:11:39.776Z,100.00
2022-11-22T07:14:09.346Z,100.00
2022-11-22T07:16:38.577Z,100.00
2022-11-22T07:19:07.402Z,100.00
2022-11-22T07:21:37.573Z,100.00
2022-11-22T07:24:07.153Z,100.00
2022-11-22T07:26:35.004Z,100.00
2022-11-22T07:29:03.460Z,100.00
2022-11-22T07:31:31.101Z,100.00
2022-11-22T07:34:01.655Z,100.00
2022-11-22T07:36:30.263Z,100.00
2022-11-22T07:38:58.543Z,100.00
2022-11-22T07:41:26.202Z,100.00
2022-11-22T07:43:54.555Z,100.00
2022-11-22T07:46:31.605Z,100.00
2022-11-22T07:49:01.587Z,100.00
2022-11-22T07:51:29.695Z,100.00
2022-11-22T07:53:58.164Z,100.00
2022-11-22T07:56:26.032Z,100.00
2022-11-22T07:58:55.447Z,100.00
2022-11-22T08:01:23.658Z,100.00
2022-11-22T08:03:51.379Z,100.00
2022-11-22T08:06:18.987Z,100.00
2022-11-22T08:08:46.537Z,100.00
2022-11-22T08:11:14.255Z,100.00
2022-11-22T08:13:42.582Z,100.00
2022-11-22T08:16:17.562Z,100.00
2022-11-22T08:18:50.012Z,100.00
2022-11-22T08:21:47.642Z,100.00
2022-11-22T08:24:16.805Z,100.00
2022-11-22T08:26:44.789Z,100.00
2022-11-22T08:29:14.514Z,100.00
2022-11-22T08:31:42.315Z,100.00
2022-11-22T08:34:09.905Z,100.00
2022-11-22T08:36:37.614Z,100.00
2022-11-22T08:39:05.245Z,100.00
2022-11-22T08:41:32.946Z,100.00
2022-11-22T08:44:00.517Z,100.00
2022-11-22T08:46:28.138Z,100.00
2022-11-22T08:48:55.882Z,100.00
2022-11-22T08:51:23.550Z,100.00
2022-11-22T08:53:51.172Z,100.00
2022-11-22T08:56:44.521Z,100.00
2022-11-22T08:59:12.219Z,100.00
2022-11-22T09:01:40.016Z,100.00
2022-11-22T09:04:07.835Z,100.00
2022-11-22T09:09:42.773Z,100.00
2022-11-22T09:12:10.454Z,100.00
2022-11-22T09:14:38.145Z,100.00
2022-11-22T09:17:06.170Z,100.00
2022-11-22T09:19:33.945Z,100.00
2022-11-22T09:22:01.666Z,100.00
2022-11-22T09:24:29.248Z,100.00
2022-11-22T09:26:56.866Z,100.00
2022-11-22T09:29:26.285Z,100.00
2022-11-22T09:31:56.009Z,100.00
2022-11-22T09:34:23.764Z,100.00
2022-11-22T09:36:51.309Z,100.00
2022-11-22T09:39:18.946Z,100.00
2022-11-22T09:42:37.914Z,100.00
2022-11-22T09:45:27.356Z,100.00
2022-11-22T09:48:19.534Z,100.00
2022-11-22T09:51:10.392Z,100.00
2022-11-22T09:53:46.745Z,100.00
2022-11-22T09:56:19.395Z,100.00
2022-11-22T09:59:16.079Z,100.00
2022-11-22T10:02:11.663Z,100.00
2022-11-22T10:04:56.727Z,100.00
2022-11-22T10:07:36.312Z,100.00
2022-11-22T10:10:11.634Z,100.00
2022-11-22T10:12:49.032Z,100.00
2022-11-22T10:16:03.870Z,100.00
2022-11-22T10:18:57.580Z,100.00
2022-11-22T10:21:25.902Z,100.00
2022-11-22T10:23:53.975Z,100.00
2022-11-22T10:26:34.533Z,100.00
2022-11-22T10:29:23.165Z,100.00
2022-11-22T10:32:29.170Z,100.00
2022-11-22T10:35:11.301Z,100.00
2022-11-22T10:38:26.692Z,100.00
2022-11-22T10:41:30.306Z,100.00
2022-11-22T10:44:23.402Z,100.00
2022-11-22T10:46:57.140Z,100.00
2022-11-22T10:50:01.512Z,100.00
2022-11-22T10:52:55.421Z,100.00
2022-11-22T10:55:38.251Z,100.00
2022-11-22T10:58:34.626Z,100.00
2022-11-22T11:01:23.227Z,100.00
2022-11-22T11:03:58.367Z,100.00
2022-11-22T11:07:11.456Z,100.00
2022-11-22T11:13:15.341Z,100.00
2022-11-22T11:15:52.820Z,100.00
2022-11-22T11:18:28.935Z,100.00
2022-11-22T11:20:56.856Z,100.00
2022-11-22T11:23:24.765Z,100.00
2022-11-22T11:25:52.648Z,100.00
2022-11-22T11:28:30.164Z,100.00
2022-11-22T11:31:08.167Z,100.00
2022-11-22T11:33:38.904Z,100.00
2022-11-22T11:36:20.978Z,100.00
2022-11-22T11:38:57.771Z,100.00
2022-11-22T11:41:37.519Z,100.00
2022-11-22T11:44:28.857Z,100.00
2022-11-22T11:46:56.961Z,100.00
2022-11-22T11:49:31.566Z,98.88
2022-11-22T11:52:22.755Z,94.79
2022-11-22T11:54:54.657Z,98.17
2022-11-22T11:57:35.131Z,96.90
2022-11-22T12:00:06.899Z,93.23
2022-11-22T12:02:42.829Z,90.50
2022-11-22T12:05:13.751Z,90.91
2022-11-22T12:07:46.397Z,90.52
2022-11-22T12:10:48.718Z,93.63
2022-11-22T12:13:35.279Z,93.17
2022-11-22T12:16:24.391Z,91.29
2022-11-22T12:19:34.532Z,90.87
2022-11-22T12:22:49.405Z,86.82
2022-11-22T12:25:32.921Z,90.10
2022-11-22T12:28:15.298Z,94.33
2022-11-22T12:30:45.527Z,91.95
2022-11-22T12:33:28.827Z,87.80
2022-11-22T12:35:58.251Z,87.38
2022-11-22T12:38:40.612Z,90.97
2022-11-22T12:41:16.982Z,87.99
2022-11-22T12:43:57.120Z,92.03
2022-11-22T12:46:39.596Z,89.00
2022-11-22T12:49:37.727Z,79.71
2022-11-22T12:52:33.685Z,88.16
2022-11-22T12:55:25.238Z,85.22
2022-11-22T12:58:12.494Z,80.78
2022-11-22T13:01:17.148Z,82.75
2022-11-22T13:04:07.090Z,83.75
2022-11-22T13:06:57.417Z,85.02
2022-11-22T13:09:38.759Z,81.24
2022-11-22T13:12:12.313Z,78.51
2022-11-22T13:14:55.480Z,76.55
2022-11-22T13:17:26.239Z,76.40
2022-11-22T13:20:03.405Z,72.76
2022-11-22T13:23:37.330Z,78.11
2022-11-22T13:26:27.197Z,75.64
2022-11-22T13:28:56.097Z,68.25
2022-11-22T13:31:23.975Z,67.80
2022-11-22T13:33:59.307Z,78.37
2022-11-22T13:36:29.994Z,69.56
2022-11-22T13:39:16.307Z,70.69
2022-11-22T13:42:04.288Z,69.50
2022-11-22T13:44:32.318Z,69.24
2022-11-22T13:47:13.174Z,69.63
2022-11-22T13:49:48.992Z,68.24
2022-11-22T13:52:16.999Z,69.18
2022-11-22T13:54:47.699Z,68.14
2022-11-22T13:57:27.632Z,70.94
2022-11-22T14:00:16.785Z,70.04
2022-11-22T14:02:49.695Z,69.78
2022-11-22T14:05:41.708Z,70.93
2022-11-22T14:08:40.476Z,69.08
2022-11-22T14:12:01.226Z,72.50
2022-11-22T14:14:50.640Z,68.82
2022-11-22T14:17:43.464Z,70.94
2022-11-22T14:20:24.112Z,72.72
2022-11-22T14:23:06.940Z,76.78
2022-11-22T14:26:12.456Z,79.52
2022-11-22T14:29:12.122Z,79.48
2022-11-22T14:31:40.252Z,78.43
2022-11-22T14:34:29.828Z,77.21
2022-11-22T14:37:16.329Z,75.07
2022-11-22T14:39:56.053Z,76.39
2022-11-22T14:42:36.717Z,80.56
2022-11-22T14:45:10.514Z,80.38
2022-11-22T14:47:53.016Z,84.67
2022-11-22T14:50:34.229Z,84.73
2022-11-22T14:53:46.177Z,84.05
2022-11-22T14:56:23.761Z,83.55
2022-11-22T14:59:09.049Z,87.65
2022-11-22T15:02:24.336Z,91.72
2022-11-22T15:09:12.132Z,92.04
2022-11-22T15:09:20.992Z,91.47
2022-11-22T15:11:34.684Z,89.13
2022-11-22T15:14:45.244Z,94.96
2022-11-22T15:58:12.899Z,100.00
2022-11-22T16:00:44.806Z,100.00
2022-11-22T16:03:36.042Z,100.00
2022-11-22T16:06:12.134Z,100.00
2022-11-22T16:08:48.615Z,100.00
2022-11-22T16:11:37.479Z,100.00
2022-11-22T16:14:37.025Z,100.00
2022-11-22T16:17:32.377Z,100.00
2022-11-22T16:20:21.831Z,100.00
2022-11-22T16:23:15.246Z,100.00
2022-11-22T16:25:53.539Z,100.00
2022-11-22T16:28:27.098Z,100.00
2022-11-22T16:31:24.798Z,100.00
2022-11-22T16:33:55.764Z,100.00
2022-11-22T16:36:28.661Z,100.00
2022-11-22T16:38:56.266Z,100.00
2022-11-22T16:41:27.464Z,100.00
2022-11-22T16:44:14.350Z,100.00
2022-11-22T16:46:42.493Z,100.00
2022-11-22T16:49:23.163Z,100.00
2022-11-22T16:51:51.775Z,100.00
2022-11-22T16:54:20.881Z,100.00
2022-11-22T16:56:48.488Z,100.00
2022-11-22T16:59:16.174Z,100.00
2022-11-22T17:01:46.094Z,100.00
2022-11-22T17:04:26.237Z,100.00
2022-11-22T17:06:56.335Z,100.00
2022-11-22T17:09:24.245Z,100.00
2022-11-22T17:11:52.555Z,100.00
2022-11-22T17:14:20.828Z,100.00
2022-11-22T17:16:48.695Z,100.00
2022-11-22T17:19:52.080Z,100.00
2022-11-22T17:22:06.984Z,100.00
2022-11-22T17:24:34.960Z,100.00
2022-11-22T17:27:02.558Z,100.00
2022-11-22T17:32:18.542Z,100.00
2022-11-22T17:34:46.289Z,100.00
2022-11-22T17:37:14.249Z,100.00
2022-11-22T17:39:42.031Z,100.00
2022-11-22T17:42:12.053Z,100.00
2022-11-22T17:44:40.227Z,100.00
2022-11-22T17:47:08.756Z,100.00
2022-11-22T17:49:36.678Z,100.00
2022-11-22T17:52:04.741Z,100.00
2022-11-22T17:54:32.318Z,100.00
2022-11-22T17:56:59.893Z,100.00
2022-11-22T17:59:27.715Z,100.00
2022-11-22T18:01:55.467Z,100.00
2022-11-22T18:04:23.303Z,100.00
2022-11-22T18:06:56.325Z,100.00
2022-11-22T18:09:24.044Z,100.00
2022-11-22T18:11:51.834Z,100.00
2022-11-22T18:14:19.647Z,100.00
2022-11-22T18:16:47.427Z,100.00
2022-11-22T18:19:15.915Z,100.00
2022-11-22T18:21:43.786Z,100.00
2022-11-22T18:24:12.114Z,100.00
2022-11-22T18:26:40.952Z,100.00
2022-11-22T18:31:58.903Z,100.00
2022-11-22T18:34:27.698Z,100.00
2022-11-22T18:37:01.567Z,100.00
2022-11-22T18:39:33.923Z,100.00
2022-11-22T18:42:02.521Z,100.00
2022-11-22T18:44:30.827Z,100.00
2022-11-22T18:46:58.629Z,100.00
2022-11-22T18:49:26.393Z,100.00
2022-11-22T18:51:54.184Z,100.00
2022-11-22T18:54:22.819Z,100.00
2022-11-22T18:56:51.585Z,100.00
2022-11-22T18:59:19.673Z,100.00
2022-11-22T19:01:47.484Z,100.00
2022-11-22T19:04:16.378Z,100.00
2022-11-22T19:06:45.677Z,100.00
2022-11-22T19:09:13.331Z,100.00
2022-11-22T19:11:41.217Z,100.00
2022-11-22T19:14:09.209Z,100.00
2022-11-22T19:16:37.325Z,100.00
2022-11-22T19:19:05.379Z,100.00
2022-11-22T19:21:33.093Z,100.00
2022-11-22T19:24:01.021Z,100.00
2022-11-22T19:26:29.003Z,100.00
2022-11-22T19:29:02.360Z,100.00
2022-11-22T19:31:31.608Z,100.00
2022-11-22T19:34:00.265Z,100.00
2022-11-22T19:36:34.180Z,100.00
2022-11-22T19:39:05.037Z,100.00
2022-11-22T19:41:33.706Z,100.00
2022-11-22T19:44:05.557Z,100.00
2022-11-22T19:46:36.364Z,100.00
2022-11-22T19:49:04.874Z,100.00
2022-11-22T19:51:32.759Z,100.00
2022-11-22T19:54:02.674Z,100.00
2022-11-22T19:56:34.020Z,100.00
2022-11-22T19:59:12.869Z,100.00
2022-11-22T20:01:40.874Z,100.00
2022-11-22T20:04:16.479Z,100.00
2022-11-22T20:06:49.699Z,100.00
2022-11-22T20:09:22.223Z,100.00
2022-11-22T20:11:50.046Z,100.00
2022-11-22T20:14:17.730Z,100.00
2022-11-22T20:16:45.986Z,100.00
2022-11-22T20:19:15.232Z,100.00
2022-11-22T20:21:43.857Z,100.00
2022-11-22T20:24:13.441Z,100.00
2022-11-22T20:26:41.274Z,100.00
2022-11-22T20:29:13.991Z,100.00
2022-11-22T20:31:41.875Z,100.00
2022-11-22T20:34:10.610Z,100.00
2022-11-22T20:36:38.405Z,100.00
2022-11-22T20:39:10.345Z,100.00
2022-11-22T20:41:39.561Z,100.00
2022-11-22T20:44:11.712Z,100.00
2022-11-22T20:46:40.584Z,100.00
2022-11-22T20:49:08.356Z,100.00
2022-11-22T20:51:38.650Z,100.00
2022-11-22T20:54:07.828Z,100.00
2022-11-22T20:56:38.860Z,100.00
2022-11-22T20:59:07.052Z,100.00
2022-11-22T21:01:34.861Z,100.00
2022-11-22T21:04:02.824Z,100.00
2022-11-22T21:06:32.903Z,100.00
2022-11-22T21:09:02.051Z,100.00
2022-11-22T21:11:34.633Z,100.00
2022-11-22T21:14:02.489Z,100.00
2022-11-22T21:16:30.999Z,100.00
2022-11-22T21:19:04.765Z,100.00
2022-11-22T21:21:35.708Z,100.00
2022-11-22T21:24:05.608Z,100.00
2022-11-22T21:26:34.249Z,100.00
2022-11-22T21:29:04.879Z,100.00
2022-11-22T21:31:32.533Z,100.00
2022-11-22T21:34:00.091Z,100.00
2022-11-22T21:36:27.832Z,100.00
2022-11-22T21:38:55.584Z,100.00
2022-11-22T21:41:39.273Z,100.00
2022-11-22T21:44:08.751Z,100.00
2022-11-22T21:46:36.506Z,100.00
2022-11-22T21:49:04.108Z,100.00
2022-11-22T21:51:32.062Z,100.00
2022-11-22T21:54:02.568Z,100.00
2022-11-22T21:56:31.732Z,100.00
2022-11-22T21:58:59.479Z,100.00
2022-11-22T22:01:27.298Z,100.00
2022-11-22T22:03:55.230Z,100.00
2022-11-22T22:06:23.507Z,100.00
2022-11-22T22:09:00.692Z,100.00
2022-11-22T22:11:28.665Z,100.00
2022-11-22T22:13:58.287Z,100.00
2022-11-22T22:16:26.355Z,100.00
2022-11-22T22:19:01.337Z,100.00
2022-11-22T22:21:31.258Z,100.00
2022-11-22T22:23:58.860Z,100.00
2022-11-22T22:26:26.767Z,100.00
2022-11-22T22:28:54.440Z,100.00
2022-11-22T22:31:24.265Z,100.00
2022-11-22T22:33:55.676Z,100.00
2022-11-22T22:36:25.148Z,100.00
2022-11-22T22:38:54.484Z,100.00
2022-11-22T22:41:22.621Z,100.00
2022-11-22T22:43:50.877Z,100.00
2022-11-22T22:46:20.832Z,100.00
2022-11-22T22:48:50.219Z,100.00
2022-11-22T22:51:29.028Z,100.00
2022-11-22T22:54:00.720Z,100.00
2022-11-22T22:56:30.806Z,100.00
2022-11-22T22:59:00.836Z,100.00
2022-11-22T23:01:31.006Z,100.00
2022-11-22T23:04:01.044Z,100.00
2022-11-22T23:06:35.739Z,100.00
2022-11-22T23:09:08.267Z,100.00
2022-11-22T23:11:55.520Z,100.00
2022-11-22T23:14:27.253Z,100.00
2022-11-22T23:16:58.016Z,100.00
2022-11-22T23:19:27.519Z,100.00
2022-11-22T23:21:55.529Z,100.00
2022-11-22T23:24:23.464Z,100.00
2022-11-22T23:26:51.391Z,100.00
2022-11-22T23:29:19.143Z,100.00
2022-11-22T23:31:46.864Z,100.00
2022-11-22T23:34:14.703Z,100.00
2022-11-22T23:36:42.291Z,100.00
2022-11-22T23:39:10.292Z,100.00
2022-11-22T23:41:38.227Z,100.00
2022-11-22T23:44:06.406Z,100.00
2022-11-22T23:46:35.220Z,100.00
2022-11-22T23:49:04.435Z,100.00
2022-11-22T23:51:33.831Z,100.00
2022-11-22T23:54:05.176Z,100.00
2022-11-22T23:56:35.356Z,100.00
2022-11-22T23:59:05.094Z,100.00
